createdAt,value
2019-05-29T09:57:23.577Z,0
2019-05-29T09:57:30.631Z,21.25061
2019-05-29T09:57:36.673Z,21.290894
2019-05-29T09:57:42.713Z,21.351318
2019-05-29T09:57:48.760Z,21.391602
2019-05-29T09:57:55.362Z,21.431885
2019-05-29T09:58:06.868Z,21.512451
2019-05-29T09:58:18.933Z,21.62323
2019-05-29T09:58:24.979Z,21.663513
2019-05-29T09:58:49.099Z,23.989868
2019-05-29T09:58:56.273Z,24.876099
2019-05-29T09:59:07.195Z,25.661621
2019-05-29T09:59:19.267Z,25.278931
2019-05-29T09:59:25.316Z,25.027161
2019-05-29T09:59:49.465Z,24.291992
2019-05-29T09:59:56.311Z,24.161072
2019-05-29T10:00:07.528Z,23.879089
2019-05-29T10:00:19.586Z,23.657532
2019-05-29T10:00:25.624Z,23.556824
2019-05-29T10:00:37.707Z,23.355408
2019-05-29T10:00:43.707Z,23.274841
2019-05-29T10:01:11.418Z,23.153992
2019-05-29T10:01:21.310Z,23.033142
2019-05-29T10:01:22.568Z,22.982788
2019-05-29T10:01:27.095Z,22.88208
2019-05-29T10:01:37.984Z,22.831726
2019-05-29T10:01:43.988Z,22.801514
2019-05-29T10:01:57.042Z,22.75116
2019-05-29T10:02:09.014Z,22.700806
2019-05-29T10:02:14.153Z,22.650452
2019-05-29T10:02:38.265Z,22.569885
2019-05-29T10:02:44.291Z,22.549744
2019-05-29T10:02:57.205Z,22.50946
2019-05-29T10:03:08.439Z,22.479248
2019-05-29T10:03:14.468Z,22.479248
2019-05-29T10:03:26.530Z,23.2547
2019-05-29T10:03:38.588Z,23.305054
2019-05-29T10:03:44.622Z,23.274841
2019-05-29T10:03:58.951Z,23.184204
2019-05-29T10:04:08.743Z,23.083496
2019-05-29T10:04:14.757Z,23.00293
2019-05-29T10:04:39.081Z,22.851868
2019-05-29T10:04:44.995Z,22.841797
2019-05-29T10:04:57.999Z,22.831726
2019-05-29T10:05:09.156Z,22.76123
2019-05-29T10:05:15.186Z,22.75116
2019-05-29T10:05:27.261Z,22.700806
2019-05-29T10:05:39.315Z,22.650452
2019-05-29T10:05:45.349Z,22.63031
2019-05-29T10:05:57.577Z,22.600098
2019-05-29T10:06:09.695Z,22.569885
2019-05-29T10:06:15.559Z,22.549744
2019-05-29T10:06:27.557Z,22.539673
2019-05-29T10:06:33.587Z,22.539673
2019-05-29T10:06:45.651Z,22.529602
2019-05-29T10:07:04.780Z,22.49939
2019-05-29T10:07:15.785Z,22.469177
2019-05-29T10:07:27.838Z,23.335266
2019-05-29T10:07:33.860Z,23.677673
2019-05-29T10:07:45.943Z,24.3927
2019-05-29T10:08:04.367Z,25.913391
2019-05-29T10:08:17.022Z,27.846985
2019-05-29T10:08:28.125Z,29.095764
2019-05-29T10:08:34.152Z,29.407959
2019-05-29T10:08:46.219Z,29.911499
2019-05-29T10:09:04.293Z,30.475464
2019-05-29T10:09:16.367Z,31.069641
2019-05-29T10:09:28.463Z,31.371765
2019-05-29T10:09:34.453Z,31.442261
2019-05-29T10:09:46.506Z,31.56311
2019-05-29T10:10:05.096Z,31.784668
2019-05-29T10:10:16.684Z,31.93573
2019-05-29T10:10:28.733Z,32.217712
2019-05-29T10:10:34.727Z,32.288208
2019-05-29T10:10:46.784Z,32.328491
2019-05-29T10:11:10.297Z,32.368774
2019-05-29T10:11:17.037Z,32.398987
2019-05-29T10:11:29.016Z,32.449341
2019-05-29T10:11:35.046Z,32.459412
2019-05-29T10:11:47.116Z,32.328491
2019-05-29T10:11:57.969Z,31.996155
2019-05-29T10:12:06.756Z,31.05957
2019-05-29T10:12:17.238Z,30.243835
2019-05-29T10:12:29.280Z,29.508667
2019-05-29T10:12:35.310Z,29.186401
2019-05-29T10:12:47.372Z,28.521729
2019-05-29T10:13:05.447Z,27.635498
2019-05-29T10:13:17.502Z,27.121887
2019-05-29T10:13:29.579Z,26.930542
2019-05-29T10:13:35.581Z,26.839905
2019-05-29T10:13:47.659Z,26.880188
2019-05-29T10:13:54.968Z,26.749268
2019-05-29T10:14:05.726Z,26.829834
2019-05-29T10:14:17.778Z,0
2019-05-29T10:14:23.776Z,27.524719
2019-05-29T10:14:35.835Z,27.846985
2019-05-29T10:14:51.271Z,0
2019-05-29T10:14:55.692Z,28.622437
2019-05-29T10:15:05.970Z,29.790649
2019-05-29T10:15:17.989Z,30.05249
2019-05-29T10:15:24.011Z,29.931641
2019-05-29T10:15:36.062Z,29.710083
2019-05-29T10:15:48.122Z,30.626526
2019-05-29T10:15:55.854Z,31.18042
2019-05-29T10:16:06.193Z,31.885376
2019-05-29T10:16:18.268Z,32.1875
2019-05-29T10:16:24.290Z,32.30835
2019-05-29T10:16:36.332Z,32.529907
2019-05-29T10:16:46.432Z,32.580261
2019-05-29T10:16:56.006Z,32.670898
2019-05-29T10:17:11.237Z,32.106934
2019-05-29T10:17:18.472Z,31.442261
2019-05-29T10:17:24.495Z,31.029358
2019-05-29T10:17:36.547Z,30.324402
2019-05-29T10:17:55.659Z,29.317322
2019-05-29T10:18:10.062Z,28.783569
2019-05-29T10:18:31.739Z,28.350525
2019-05-29T10:18:31.741Z,28.370667
2019-05-29T10:18:36.794Z,28.229675
2019-05-29T10:18:48.852Z,27.957764
2019-05-29T10:18:55.975Z,27.816772
2019-05-29T10:19:07.039Z,27.575073
2019-05-29T10:19:18.964Z,27.353516
2019-05-29T10:19:24.997Z,27.212524
2019-05-29T10:19:37.043Z,27.071533
2019-05-29T10:19:49.109Z,26.90033
2019-05-29T10:19:55.840Z,26.839905
2019-05-29T10:20:07.182Z,26.708984
2019-05-29T10:20:19.232Z,26.588135
2019-05-29T10:20:25.248Z,26.517639
2019-05-29T10:20:37.320Z,26.39679
2019-05-29T10:20:49.363Z,26.286011
2019-05-29T10:21:07.442Z,26.134949
2019-05-29T10:21:19.526Z,26.02417
2019-05-29T10:21:38.959Z,26.104736
2019-05-29T10:21:40.415Z,27.393799
2019-05-29T10:21:43.619Z,29.871216
2019-05-29T10:22:07.718Z,31.401978
2019-05-29T10:22:13.765Z,31.271057
2019-05-29T10:22:25.793Z,30.8078
2019-05-29T10:22:37.846Z,30.284119
2019-05-29T10:22:43.912Z,30.002136
2019-05-29T10:23:08.051Z,28.934631
2019-05-29T10:23:15.050Z,28.632507
2019-05-29T10:23:26.128Z,28.491516
2019-05-29T10:23:38.134Z,28.632507
2019-05-29T10:23:44.160Z,28.723145
2019-05-29T10:24:08.266Z,29.16626
2019-05-29T10:24:14.294Z,28.974915
2019-05-29T10:24:26.339Z,28.481445
2019-05-29T10:24:38.425Z,27.947693
2019-05-29T10:24:44.425Z,27.695923
2019-05-29T10:25:08.531Z,26.729126
2019-05-29T10:25:14.550Z,26.547852
2019-05-29T10:25:26.667Z,26.185303
2019-05-29T10:25:38.663Z,26.074524
2019-05-29T10:25:44.698Z,26.588135
2019-05-29T10:25:58.320Z,27.494507
2019-05-29T10:26:08.779Z,28.098755
2019-05-29T10:26:14.850Z,28.320312
2019-05-29T10:26:26.885Z,28.269958
2019-05-29T10:26:33.931Z,28.098755
2019-05-29T10:26:44.963Z,27.726135
2019-05-29T10:27:09.075Z,27.182312
2019-05-29T10:27:15.120Z,27.071533
2019-05-29T10:27:27.178Z,26.839905
2019-05-29T10:27:39.247Z,26.628418
2019-05-29T10:27:45.279Z,26.557922
2019-05-29T10:28:05.910Z,26.27594
2019-05-29T10:28:15.438Z,26.094666
2019-05-29T10:28:27.464Z,25.983887
2019-05-29T10:28:51.516Z,25.883179
2019-05-29T10:28:58.719Z,25.842896
2019-05-29T10:29:08.558Z,25.701904
2019-05-29T10:29:15.647Z,25.621338
2019-05-29T10:29:27.723Z,25.530701
2019-05-29T10:29:33.966Z,25.470276
2019-05-29T10:29:48.748Z,25.39978
2019-05-29T10:30:03.853Z,25.309143
2019-05-29T10:30:15.942Z,25.278931
2019-05-29T10:30:27.953Z,25.228577
2019-05-29T10:30:33.974Z,25.208435
2019-05-29T10:30:46.365Z,25.208435
2019-05-29T10:31:05.005Z,25.137939
2019-05-29T10:31:16.154Z,25.127869
2019-05-29T10:31:28.207Z,25.067444
2019-05-29T10:31:34.222Z,25.027161
2019-05-29T10:31:47.629Z,24.886169
2019-05-29T10:32:04.352Z,24.704895
2019-05-29T10:32:16.399Z,24.634399
2019-05-29T10:32:28.459Z,24.573975
2019-05-29T10:32:34.495Z,24.533691
2019-05-29T10:32:46.208Z,24.503479
2019-05-29T10:33:04.609Z,24.3927
2019-05-29T10:33:16.670Z,24.352417
2019-05-29T10:33:34.763Z,24.281921
2019-05-29T10:33:42.220Z,24.26178
2019-05-29T10:33:47.981Z,24.231567
2019-05-29T10:34:04.836Z,24.281921
2019-05-29T10:34:16.918Z,24.332275
2019-05-29T10:34:28.932Z,24.362488
2019-05-29T10:34:34.973Z,24.382629
2019-05-29T10:34:48.366Z,24.291992
2019-05-29T10:35:05.084Z,24.211426
2019-05-29T10:35:17.126Z,24.161072
2019-05-29T10:35:29.173Z,24.110718
2019-05-29T10:35:35.198Z,24.080505
2019-05-29T10:35:49.539Z,24.030151
2019-05-29T10:36:05.314Z,23.989868
2019-05-29T10:36:17.359Z,25.309143
2019-05-29T10:36:29.408Z,26.77948
2019-05-29T10:36:35.439Z,27.262878
2019-05-29T10:36:50.333Z,27.977905
2019-05-29T10:37:05.811Z,28.602295
2019-05-29T10:37:18.350Z,28.864136
2019-05-29T10:37:23.786Z,28.984985
2019-05-29T10:37:35.837Z,29.196472
2019-05-29T10:37:48.632Z,29.337463
2019-05-29T10:37:53.905Z,29.41803
2019-05-29T10:38:05.954Z,29.015198
2019-05-29T10:38:18.046Z,28.562012
2019-05-29T10:38:24.009Z,28.380737
2019-05-29T10:38:36.063Z,27.998047
2019-05-29T10:38:48.634Z,27.524719
2019-05-29T10:39:06.240Z,26.920471
2019-05-29T10:39:18.253Z,26.628418
2019-05-29T10:39:24.273Z,26.547852
2019-05-29T10:39:36.320Z,26.326294
2019-05-29T10:39:48.875Z,26.104736
2019-05-29T10:40:06.438Z,25.7724
2019-05-29T10:40:18.474Z,25.852966
2019-05-29T10:40:24.498Z,26.27594
2019-05-29T10:40:36.539Z,27.051392
2019-05-29T10:41:00.003Z,27.474365
2019-05-29T10:41:07.477Z,27.736206
2019-05-29T10:41:18.710Z,27.746277
2019-05-29T10:41:24.744Z,27.766418
2019-05-29T10:41:36.819Z,27.826843
2019-05-29T10:41:48.918Z,27.635498
2019-05-29T10:42:06.953Z,27.081604
2019-05-29T10:42:20.663Z,26.749268
2019-05-29T10:42:27.261Z,26.618347
2019-05-29T10:42:37.076Z,26.336365
2019-05-29T10:42:49.160Z,26.104736
2019-05-29T10:43:07.186Z,25.782471
2019-05-29T10:43:33.988Z,25.500488
2019-05-29T10:43:37.293Z,25.319214
2019-05-29T10:43:49.350Z,25.208435
2019-05-29T10:44:07.424Z,25.037231
2019-05-29T10:44:25.521Z,24.906311
2019-05-29T10:44:37.562Z,24.835815
2019-05-29T10:44:43.595Z,24.76532
2019-05-29T10:45:07.703Z,24.634399
2019-05-29T10:45:13.726Z,24.584045
2019-05-29T10:45:25.772Z,24.533691
2019-05-29T10:45:37.867Z,24.453125
2019-05-29T10:45:45.627Z,24.432983
2019-05-29T10:46:07.976Z,24.735107
2019-05-29T10:46:13.960Z,24.755249
2019-05-29T10:46:26.062Z,25.067444
2019-05-29T10:46:38.058Z,25.349426
2019-05-29T10:46:45.865Z,25.470276
2019-05-29T10:47:08.179Z,25.782471
2019-05-29T10:47:14.227Z,25.7724
2019-05-29T10:47:26.246Z,25.681763
2019-05-29T10:47:38.314Z,25.782471
2019-05-29T10:47:45.470Z,25.732117
2019-05-29T10:48:08.462Z,25.510559
2019-05-29T10:48:14.457Z,25.550842
2019-05-29T10:48:26.528Z,25.701904
2019-05-29T10:48:38.559Z,25.812683
2019-05-29T10:48:48.639Z,25.802612
2019-05-29T10:49:08.722Z,25.581055
2019-05-29T10:49:14.738Z,25.500488
2019-05-29T10:49:26.829Z,25.530701
2019-05-29T10:49:38.856Z,25.933533
2019-05-29T10:49:45.491Z,25.913391
2019-05-29T10:50:08.972Z,25.691833
2019-05-29T10:50:14.982Z,25.732117
2019-05-29T10:50:27.052Z,26.175232
2019-05-29T10:50:39.064Z,26.628418
2019-05-29T10:50:47.840Z,26.829834
2019-05-29T10:51:09.174Z,27.172241
2019-05-29T10:51:15.222Z,27.081604
2019-05-29T10:51:27.246Z,26.970825
2019-05-29T10:51:54.494Z,27.222595
2019-05-29T10:52:00.102Z,27.353516
2019-05-29T10:52:15.214Z,27.172241
2019-05-29T10:52:17.474Z,27.051392
2019-05-29T10:52:27.442Z,26.799622
2019-05-29T10:52:39.490Z,26.77948
2019-05-29T10:52:45.828Z,26.880188
2019-05-29T10:53:09.598Z,27.001038
2019-05-29T10:53:15.629Z,27.142029
2019-05-29T10:53:27.675Z,27.142029
2019-05-29T10:53:33.706Z,27.182312
2019-05-29T10:53:46.998Z,27.252808
2019-05-29T10:54:03.835Z,26.90033
2019-05-29T10:54:27.980Z,26.447144
2019-05-29T10:54:33.958Z,26.356506
2019-05-29T10:54:46.141Z,26.306152
2019-05-29T10:55:04.090Z,26.970825
2019-05-29T10:55:28.195Z,27.202454
2019-05-29T10:55:34.261Z,27.363586
2019-05-29T10:55:46.378Z,27.66571
2019-05-29T10:56:04.475Z,27.91748
2019-05-29T10:56:28.496Z,27.736206
2019-05-29T10:56:34.523Z,27.595215
2019-05-29T10:56:46.905Z,27.333374
2019-05-29T10:57:04.649Z,27.021179
2019-05-29T10:57:28.753Z,26.467285
2019-05-29T10:57:34.775Z,26.336365
2019-05-29T10:57:46.791Z,26.14502
2019-05-29T10:58:04.911Z,25.842896
2019-05-29T10:58:29.041Z,25.500488
2019-05-29T10:58:47.832Z,25.409851
2019-05-29T10:58:51.939Z,25.289001
2019-05-29T10:59:05.123Z,25.107727
2019-05-29T10:59:29.232Z,24.916382
2019-05-29T10:59:35.256Z,24.855957
2019-05-29T10:59:47.310Z,24.775391
2019-05-29T11:00:05.413Z,24.684753
2019-05-29T11:00:38.518Z,24.503479
2019-05-29T11:00:49.011Z,24.422913
2019-05-29T11:00:53.592Z,24.3927
2019-05-29T11:01:05.611Z,24.352417
2019-05-29T11:01:23.732Z,24.302063
2019-05-29T11:01:35.785Z,24.281921
2019-05-29T11:01:49.064Z,24.241638
2019-05-29T11:01:53.981Z,24.241638
2019-05-29T11:02:05.874Z,24.211426
2019-05-29T11:02:23.964Z,24.211426
2019-05-29T11:02:36.021Z,24.211426
2019-05-29T11:02:49.894Z,24.181213
2019-05-29T11:03:06.161Z,24.171143
2019-05-29T11:03:24.222Z,24.161072
2019-05-29T11:03:36.266Z,24.161072
2019-05-29T11:03:49.324Z,24.14093
2019-05-29T11:04:06.391Z,24.14093
2019-05-29T11:04:24.480Z,24.130859
2019-05-29T11:04:36.537Z,24.130859
2019-05-29T11:04:52.998Z,24.080505
2019-05-29T11:05:06.663Z,24.080505
2019-05-29T11:05:24.811Z,24.060364
2019-05-29T11:05:36.883Z,24.060364
2019-05-29T11:05:49.547Z,24.080505
2019-05-29T11:06:07.160Z,24.100647
2019-05-29T11:06:28.397Z,24.060364
2019-05-29T11:06:40.345Z,24.050293
2019-05-29T11:06:50.138Z,24.050293
2019-05-29T11:07:07.429Z,24.030151
2019-05-29T11:07:25.572Z,24.050293
2019-05-29T11:07:37.576Z,24.050293
2019-05-29T11:07:43.617Z,24.060364
2019-05-29T11:07:55.941Z,24.100647
2019-05-29T11:08:07.708Z,24.100647
2019-05-29T11:08:13.735Z,24.100647
2019-05-29T11:08:25.792Z,24.080505
2019-05-29T11:08:37.833Z,24.080505
2019-05-29T11:08:43.867Z,24.060364
2019-05-29T11:08:56.313Z,24.080505
2019-05-29T11:09:07.958Z,24.100647
2019-05-29T11:09:13.977Z,24.100647
2019-05-29T11:09:26.022Z,24.110718
2019-05-29T11:09:44.279Z,24.100647
2019-05-29T11:09:45.079Z,24.100647
2019-05-29T11:09:56.262Z,24.060364
2019-05-29T11:10:08.185Z,24.050293
2019-05-29T11:10:14.207Z,24.050293
2019-05-29T11:10:26.252Z,24.050293
2019-05-29T11:10:38.298Z,24.030151
2019-05-29T11:10:44.341Z,24.030151
2019-05-29T11:10:56.449Z,24.020081
2019-05-29T11:11:08.551Z,24.030151
2019-05-29T11:11:14.463Z,24.030151
2019-05-29T11:11:26.601Z,24.050293
2019-05-29T11:11:38.601Z,24.050293
